Time;durP1;ratioP1;P1;durP2;ratioP2;P2;SDS_P1;SDS_P2;PMS_P1;PMS_P2;Temp;Humidity;BMP_temperature;BMP_pressure;BME280_temperature;BME280_humidity;BME280_pressure;Samples;Min_cycle;Max_cycle;Signal;HPM_P1;HPM_P2
2022/04/20 00:01:44;;;;;;;8.57;4.50;;;;;;;;;;6097417;23;20573;-87
2022/04/20 00:04:11;;;;;;;7.20;4.47;;;;;;;;;;6119676;23;20033;-87
2022/04/20 00:06:37;;;;;;;14.07;4.70;;;;;;;;;;6123714;23;20013;-87
2022/04/20 00:09:03;;;;;;;12.32;5.38;;;;;;;;;;6097272;23;20018;-87
2022/04/20 00:11:30;;;;;;;8.43;4.60;;;;;;;;;;6099672;23;20363;-87
2022/04/20 00:13:56;;;;;;;7.80;4.90;;;;;;;;;;6126132;23;20024;-87
2022/04/20 00:16:22;;;;;;;10.20;4.82;;;;;;;;;;6121808;23;20013;-87
2022/04/20 00:18:48;;;;;;;9.82;4.70;;;;;;;;;;6123472;23;20064;-87
2022/04/20 00:21:15;;;;;;;9.02;5.00;;;;;;;;;;6122179;23;20093;-88
2022/04/20 00:23:40;;;;;;;8.65;5.18;;;11.40;99.90;;;;;;6092690;23;20052;-87
2022/04/20 00:26:06;;;;;;;7.38;5.20;;;7.10;99.90;;;;;;6068971;23;20508;-88
2022/04/20 00:28:32;;;;;;;8.55;5.15;;;6.90;99.90;;;;;;6119819;23;20017;-88
2022/04/20 00:30:58;;;;;;;9.40;5.28;;;6.90;99.90;;;;;;6117951;23;20028;-87
2022/04/20 00:33:23;;;;;;;12.25;5.13;;;6.80;99.90;;;;;;6096886;23;20013;-87
2022/04/20 00:35:50;;;;;;;8.88;5.45;;;6.80;99.90;;;;;;6120750;23;20025;-86
2022/04/20 00:38:17;;;;;;;10.95;5.95;;;6.80;99.90;;;;;;6122200;23;20017;-87
2022/04/20 00:40:48;;;;;;;8.15;5.68;;;6.80;99.90;;;;;;6121399;23;20017;-87
2022/04/20 00:43:14;;;;;;;10.55;5.80;;;6.70;99.90;;;;;;6096498;23;20044;-88
2022/04/20 00:45:44;;;;;;;7.88;5.40;;;6.80;99.90;;;;;;6072885;23;20056;-88
2022/04/20 00:48:11;;;;;;;9.30;5.35;;;6.70;99.90;;;;;;6099755;23;20024;-87
2022/04/20 00:50:42;;;;;;;8.70;5.57;;;6.70;99.90;;;;;;6123463;23;20021;-87
2022/04/20 00:53:08;;;;;;;9.68;6.13;;;6.70;99.90;;;;;;6145859;23;20021;-87
2022/04/20 00:55:34;;;;;;;10.60;5.50;;;6.70;99.90;;;;;;6122282;23;20020;-87
2022/04/20 00:58:00;;;;;;;10.23;6.18;;;6.60;99.90;;;;;;6096061;23;20076;-89
2022/04/20 01:00:27;;;;;;;13.55;5.78;;;6.60;99.90;;;;;;6096421;23;20052;-86
2022/04/20 01:02:54;;;;;;;11.88;5.75;;;6.60;99.90;;;;;;6097207;23;20133;-87
2022/04/20 01:05:21;;;;;;;11.18;5.80;;;6.60;99.90;;;;;;6096604;23;20109;-87
2022/04/20 01:07:47;;;;;;;8.85;5.60;;;6.50;99.90;;;;;;6120422;23;20061;-87
2022/04/20 01:10:13;;;;;;;9.88;5.90;;;6.50;99.90;;;;;;6096976;23;20020;-87
2022/04/20 01:12:43;;;;;;;10.70;6.22;;;6.50;99.90;;;;;;6097061;23;20013;-88
2022/04/20 01:15:10;;;;;;;12.30;5.82;;;6.40;99.90;;;;;;6122215;23;20022;-87
2022/04/20 01:17:36;;;;;;;8.05;5.60;;;6.40;99.90;;;;;;6096762;23;20096;-87
2022/04/20 01:20:02;;;;;;;8.50;5.90;;;6.40;99.90;;;;;;6121762;23;20049;-87
2022/04/20 01:22:28;;;;;;;10.45;5.85;;;6.40;99.90;;;;;;6124333;23;20009;-87
2022/04/20 01:24:54;;;;;;;10.48;5.90;;;6.40;99.90;;;;;;6094423;23;20541;-88
2022/04/20 01:27:20;;;;;;;9.13;6.03;;;6.40;99.90;;;;;;6097183;23;20112;-88
2022/04/20 01:29:47;;;;;;;10.18;6.22;;;6.40;99.90;;;;;;6119121;23;20093;-86
2022/04/20 01:32:13;;;;;;;8.40;5.63;;;6.30;99.90;;;;;;6122020;23;20013;-88
2022/04/20 01:34:39;;;;;;;9.10;5.75;;;6.30;99.90;;;;;;6097157;23;20040;-87
2022/04/20 01:37:05;;;;;;;8.75;5.80;;;6.30;99.90;;;;;;6098327;23;20144;-87
2022/04/20 01:39:30;;;;;;;10.75;5.82;;;6.30;99.90;;;;;;6121879;23;20124;-87
2022/04/20 01:41:56;;;;;;;14.13;6.57;;;6.20;99.90;;;;;;6099084;23;20411;-88
2022/04/20 01:44:22;;;;;;;11.35;6.03;;;6.20;99.90;;;;;;6099630;23;20013;-88
2022/04/20 01:46:48;;;;;;;11.35;6.25;;;6.20;99.90;;;;;;6099560;23;20045;-88
2022/04/20 01:49:14;;;;;;;9.38;6.13;;;6.20;99.90;;;;;;6098206;23;20028;-88
2022/04/20 01:51:52;;;;;;;10.38;6.03;;;6.20;99.90;;;;;;6099329;23;20017;-88
2022/04/20 01:54:19;;;;;;;11.10;5.97;;;6.20;99.90;;;;;;6122691;23;20092;-88
2022/04/20 01:56:49;;;;;;;11.10;6.28;;;6.20;99.90;;;;;;6124794;23;20017;-88
2022/04/20 01:59:15;;;;;;;10.68;6.28;;;6.20;99.90;;;;;;6124977;23;20165;-86
2022/04/20 02:04:26;;;;;;;10.77;7.00;;;6.10;99.90;;;;;;6153036;23;20025;-86
2022/04/20 02:06:52;;;;;;;10.13;6.63;;;6.10;99.90;;;;;;6122497;23;20013;-87
2022/04/20 02:09:18;;;;;;;12.90;5.85;;;6.10;99.90;;;;;;6122860;23;20028;-87
2022/04/20 02:11:44;;;;;;;9.80;5.82;;;6.00;99.90;;;;;;6075937;23;20363;-87
2022/04/20 02:14:10;;;;;;;11.85;6.38;;;5.90;99.90;;;;;;6074767;23;20792;-87
2022/04/20 02:16:37;;;;;;;10.43;6.68;;;;;;;;;;6098189;23;20014;-87
2022/04/20 02:19:03;;;;;;;12.57;6.32;;;;;;;;;;6100345;23;20009;-87
2022/04/20 02:21:30;;;;;;;12.30;6.07;;;;;;;;;;6098040;23;20021;-88
2022/04/20 02:23:56;;;;;;;10.20;6.18;;;;;;;;;;6122056;23;20049;-88
2022/04/20 02:26:22;;;;;;;8.32;6.22;;;;;;;;;;6123420;23;20574;-87
2022/04/20 02:28:48;;;;;;;10.57;6.40;;;;;;;;;;6122466;23;20026;-86
2022/04/20 02:31:15;;;;;;;13.00;6.38;;;;;;;;;;6099682;23;20340;-87
2022/04/20 02:33:41;;;;;;;14.35;6.80;;;;;;;;;;6123861;23;20100;-87
2022/04/20 02:36:07;;;;;;;13.73;6.72;;;;;;;;;;6121539;23;20029;-88
2022/04/20 02:38:34;;;;;;;10.43;6.30;;;;;;;;;;6122950;23;20014;-88
2022/04/20 02:41:01;;;;;;;10.57;6.75;;;;;;;;;;6122401;23;20021;-88
2022/04/20 02:43:27;;;;;;;13.93;6.93;;;;;;;;;;6121896;23;20459;-88
2022/04/20 02:45:55;;;;;;;10.93;6.63;;;;;;;;;;6095156;23;20059;-88
2022/04/20 02:48:21;;;;;;;8.75;6.28;;;;;;;;;;6121707;23;20469;-88
2022/04/20 02:50:47;;;;;;;15.68;7.05;;;;;;;;;;6098024;23;20124;-88
2022/04/20 02:53:13;;;;;;;13.70;6.97;;;;;;;;;;6120935;23;20014;-88
2022/04/20 02:55:42;;;;;;;10.07;6.53;;;;;;;;;;6094862;23;20455;-87
2022/04/20 02:58:08;;;;;;;10.85;6.88;;;;;;;;;;6122479;23;20068;-87
2022/04/20 03:00:34;;;;;;;12.80;7.43;;;;;;;;;;6095998;23;20064;-88
2022/04/20 03:03:00;;;;;;;10.95;6.72;;;;;;;;;;6120150;23;20013;-88
2022/04/20 03:05:27;;;;;;;16.08;6.63;;;;;;;;;;6120587;23;20021;-87
2022/04/20 03:07:53;;;;;;;10.18;6.60;;;;;;;;;;6099792;23;20020;-87
2022/04/20 03:10:19;;;;;;;11.80;6.32;;;;;;;;;;6098570;23;20025;-87
2022/04/20 03:12:45;;;;;;;11.57;6.82;;;;;;;;;;6096493;23;20018;-88
2022/04/20 03:15:11;;;;;;;11.82;7.13;;;;;;;;;;6093245;23;20009;-88
2022/04/20 03:17:38;;;;;;;11.20;7.07;;;;;;;;;;6122403;23;20022;-88
2022/04/20 03:20:04;;;;;;;12.77;6.72;;;;;;;;;;6120406;23;20020;-88
2022/04/20 03:22:30;;;;;;;9.57;6.07;;;;;;;;;;6122224;23;20052;-88
2022/04/20 03:24:56;;;;;;;9.63;6.95;;;;;;;;;;6120577;23;20017;-89
2022/04/20 03:27:23;;;;;;;14.02;6.57;;;;;;;;;;6120270;23;20080;-87
2022/04/20 03:29:49;;;;;;;10.95;6.63;;;;;;;;;;6120745;23;20024;-87
2022/04/20 03:32:16;;;;;;;11.85;6.50;;;;;;;;;;6096100;23;20036;-87
2022/04/20 03:34:42;;;;;;;12.38;6.35;;;;;;;;;;6122958;23;20016;-87
2022/04/20 03:37:12;;;;;;;13.00;6.65;;;;;;;;;;6119306;23;20014;-87
2022/04/20 03:39:38;;;;;;;11.45;6.50;;;;;;;;;;6120963;23;20013;-87
2022/04/20 03:42:05;;;;;;;11.98;6.53;;;;;;;;;;6122915;23;20010;-88
2022/04/20 03:44:33;;;;;;;11.82;6.80;;;;;;;;;;6100855;23;20013;-88
2022/04/20 03:46:59;;;;;;;12.23;6.45;;;;;;;;;;6120900;23;20414;-88
2022/04/20 03:49:25;;;;;;;11.57;6.25;;;;;;;;;;6121812;23;20097;-88
2022/04/20 03:51:52;;;;;;;9.75;5.95;;;;;;;;;;6121099;23;20052;-88
2022/04/20 03:54:18;;;;;;;9.05;5.55;;;;;;;;;;6121499;23;20021;-87
2022/04/20 03:59:28;;;;;;;9.27;6.28;;;;;;;;;;6125024;23;20477;-89
2022/04/20 04:01:55;;;;;;;9.73;6.07;;;;;;;;;;6097029;23;20017;-88
2022/04/20 04:04:21;;;;;;;11.63;6.43;;;;;;;;;;6097897;23;20010;-87
2022/04/20 04:06:47;;;;;;;10.90;6.63;;;;;;;;;;6119473;23;20782;-88
2022/04/20 04:09:16;;;;;;;12.38;6.80;;;;;;;;;;6120985;23;20072;-86
2022/04/20 04:11:43;;;;;;;11.70;6.78;;;;;;;;;;6121840;23;20018;-88
2022/04/20 04:14:11;;;;;;;13.25;6.93;;;;;;;;;;6097642;23;20025;-88
2022/04/20 04:16:40;;;;;;;9.45;5.88;;;;;;;;;;6143761;23;20092;-87
2022/04/20 04:19:29;;;;;;;10.80;6.65;;;;;;;;;;6152697;23;20025;-88
2022/04/20 04:21:56;;;;;;;11.45;6.63;;;;;;;;;;6122592;23;20017;-87
2022/04/20 04:24:34;;;;;;;10.77;6.45;;;;;;;;;;6097022;23;20642;-88
2022/04/20 04:27:02;;;;;;;8.90;5.95;;;;;;;;;;6121508;23;20045;-87
2022/04/20 04:29:28;;;;;;;13.65;6.85;;;;;;;;;;6121134;23;20025;-88
2022/04/20 04:32:00;;;;;;;12.05;6.63;;;;;;;;;;6119341;23;20014;-88
2022/04/20 04:34:27;;;;;;;11.07;6.70;;;;;;;;;;6118184;23;20018;-89
2022/04/20 04:36:54;;;;;;;11.63;6.13;;;;;;;;;;6092461;23;20017;-88
2022/04/20 04:39:23;;;;;;;15.48;6.90;;;;;;;;;;6121137;23;20013;-88
2022/04/20 04:41:49;;;;;;;13.13;7.28;;;;;;;;;;6093877;23;20045;-87
2022/04/20 04:44:17;;;;;;;10.35;6.70;;;;;;;;;;6096743;23;20507;-89
2022/04/20 04:49:28;;;;;;;10.90;6.47;;;;;;;;;;6142453;23;20022;-88
2022/04/20 04:51:54;;;;;;;10.82;6.30;;;;;;;;;;6120067;23;20363;-89
2022/04/20 04:54:20;;;;;;;13.52;5.97;;;;;;;;;;6123568;23;20013;-88
2022/04/20 04:56:46;;;;;;;9.93;6.18;;;;;;;;;;6094152;23;20064;-88
2022/04/20 04:59:13;;;;;;;11.88;6.60;;;;;;;;;;6092412;23;20018;-89
2022/04/20 05:01:39;;;;;;;12.02;6.32;;;;;;;;;;6110736;23;20017;-90
2022/04/20 05:04:05;;;;;;;11.40;6.15;;;;;;;;;;6090181;23;20024;-88
2022/04/20 05:06:32;;;;;;;12.57;7.05;;;;;;;;;;6113057;23;20021;-88
2022/04/20 05:08:58;;;;;;;10.23;5.80;;;;;;;;;;6110401;23;20101;-87
2022/04/20 05:11:34;;;;;;;11.63;7.38;;;;;;;;;;6113977;23;20455;-87
2022/04/20 05:14:00;;;;;;;11.45;6.95;;;;;;;;;;6118855;23;20025;-88
2022/04/20 05:16:26;;;;;;;11.15;6.00;;;;;;;;;;6116174;23;20346;-87
2022/04/20 05:18:53;;;;;;;10.60;6.57;;;;;;;;;;6118814;23;20014;-87
2022/04/20 05:21:19;;;;;;;13.75;6.75;;;;;;;;;;6095147;23;20405;-88
2022/04/20 05:23:45;;;;;;;9.07;5.68;;;;;;;;;;6119228;23;20017;-86
2022/04/20 05:26:12;;;;;;;11.50;5.93;;;;;;;;;;6123031;23;20328;-87
2022/04/20 05:28:38;;;;;;;12.68;6.68;;;;;;;;;;6127273;23;20022;-87
2022/04/20 05:31:04;;;;;;;12.98;6.10;;;;;;;;;;6097759;23;20014;-86
2022/04/20 05:33:35;;;;;;;12.50;6.32;;;;;;;;;;6118642;23;20065;-87
2022/04/20 05:36:02;;;;;;;15.07;6.50;;;;;;;;;;6098820;23;20016;-88
2022/04/20 05:43:57;;;;;;;9.93;6.50;;;;;;;;;;6148502;23;20120;-87
2022/04/20 05:46:23;;;;;;;11.52;6.25;;;;;;;;;;6125143;23;20395;-88
2022/04/20 05:48:49;;;;;;;12.18;6.38;;;;;;;;;;6125437;23;20444;-87
2022/04/20 05:51:16;;;;;;;8.52;6.40;;;;;;;;;;6122108;23;20017;-88
2022/04/20 05:53:42;;;;;;;11.70;6.15;;;;;;;;;;6099614;23;20091;-87
2022/04/20 05:56:08;;;;;;;11.25;6.60;;;;;;;;;;6097254;23;20013;-87
2022/04/20 05:58:34;;;;;;;11.23;6.35;;;;;;;;;;6123967;23;20100;-88
2022/04/20 06:01:01;;;;;;;10.98;6.60;;;;;;;;;;6122246;23;20021;-88
2022/04/20 06:03:27;;;;;;;12.02;6.05;;;;;;;;;;6102818;23;20549;-87
2022/04/20 06:05:53;;;;;;;9.15;5.75;;;;;;;;;;6102470;23;20048;-88
2022/04/20 06:08:20;;;;;;;10.50;6.80;;;;;;;;;;6121763;23;20017;-88
2022/04/20 06:10:46;;;;;;;8.43;5.63;;;;;;;;;;6123456;23;20522;-88
2022/04/20 06:13:13;;;;;;;9.43;6.00;;;;;;;;;;6117345;23;20336;-89
2022/04/20 06:15:39;;;;;;;9.98;6.07;;;;;;;;;;6121837;23;20013;-87
2022/04/20 06:18:07;;;;;;;10.15;6.30;;;;;;;;;;6102221;23;20013;-88
2022/04/20 06:20:33;;;;;;;12.10;5.95;;;5.90;99.90;;;;;;6124994;23;20021;-89
2022/04/20 06:22:59;;;;;;;7.95;5.90;;;;;;;;;;6075621;23;20477;-88
2022/04/20 06:25:26;;;;;;;12.00;6.43;;;;;;;;;;6101593;23;20064;-88
2022/04/20 06:27:52;;;;;;;11.35;6.40;;;;;;;;;;6124087;23;20473;-87
2022/04/20 06:30:18;;;;;;;13.32;6.30;;;;;;;;;;6097797;23;20049;-88
2022/04/20 06:32:44;;;;;;;12.00;6.50;;;;;;;;;;6097696;23;20049;-87
2022/04/20 06:35:10;;;;;;;11.80;6.50;;;;;;;;;;6101047;23;20072;-91
2022/04/20 06:37:37;;;;;;;14.82;6.28;;;;;;;;;;6102702;23;20502;-88
2022/04/20 06:40:03;;;;;;;11.00;6.72;;;;;;;;;;6125388;23;20017;-88
2022/04/20 06:42:29;;;;;;;10.45;6.35;;;;;;;;;;6098441;23;20020;-88
2022/04/20 06:44:56;;;;;;;9.80;6.30;;;;;;;;;;6100141;23;20020;-88
2022/04/20 06:47:22;;;;;;;12.70;6.70;;;;;;;;;;6100105;23;20013;-86
2022/04/20 06:49:49;;;;;;;11.45;6.88;;;;;;;;;;6123203;23;20018;-86
2022/04/20 07:00:29;;;;;;;12.50;6.93;;;;;;;;;;6148180;23;20664;-87
2022/04/20 07:03:01;;;;;;;14.10;7.22;;;;;;;;;;6116350;23;20052;-88
2022/04/20 07:05:30;;;;;;;10.50;6.43;;;;;;;;;;6124326;23;20013;-88
2022/04/20 07:07:56;;;;;;;14.02;7.30;;;;;;;;;;6102656;23;20024;-86
2022/04/20 07:10:22;;;;;;;10.75;6.40;;;;;;;;;;6100060;23;20016;-88
2022/04/20 07:12:49;;;;;;;12.73;6.70;;;;;;;;;;6121963;23;20077;-86
2022/04/20 07:15:15;;;;;;;12.10;5.97;;;;;;;;;;6121418;23;20025;-88
2022/04/20 07:17:41;;;;;;;12.50;6.72;;;;;;;;;;6093028;23;20017;-89
2022/04/20 07:20:07;;;;;;;9.70;6.03;;;;;;;;;;6095349;23;20462;-88
2022/04/20 07:22:33;;;;;;;10.27;6.10;;;6.60;99.90;;;;;;6094831;23;20024;-87
2022/04/20 07:25:00;;;;;;;11.23;5.95;;;;;;;;;;6070879;23;20013;-88
2022/04/20 07:27:26;;;;;;;12.55;5.43;;;;;;;;;;6094556;23;20099;-88
2022/04/20 07:29:52;;;;;;;9.80;5.55;;;;;;;;;;6096970;23;20428;-88
2022/04/20 07:32:18;;;;;;;10.32;5.93;;;;;;;;;;6120932;23;20010;-88
2022/04/20 07:34:44;;;;;;;15.65;5.95;;;8.80;99.90;;;;;;6097126;23;20014;-88
2022/04/20 07:37:10;;;;;;;8.80;4.82;;;;;;;;;;6094801;23;20081;-89
2022/04/20 07:39:36;;;;;;;9.70;5.13;;;;;;;;;;6093254;23;20344;-88
2022/04/20 07:42:03;;;;;;;7.97;4.30;;;;;;;;;;6097463;23;20017;-88
2022/04/20 07:44:29;;;;;;;10.23;4.75;;;;;;;;;;6096576;23;20171;-88
2022/04/20 07:46:55;;;;;;;8.95;4.80;;;;;;;;;;6096698;23;20017;-88
2022/04/20 07:52:06;;;;;;;8.48;4.85;;;;;;;;;;6098765;23;20053;-88
2022/04/20 07:54:32;;;;;;;7.15;4.18;;;;;;;;;;6096533;23;20014;-88
2022/04/20 07:56:58;;;;;;;9.27;4.15;;;;;;;;;;6096252;23;20009;-88
2022/04/20 07:59:24;;;;;;;6.60;3.58;;;;;;;;;;6095682;23;20017;-89
2022/04/20 08:01:51;;;;;;;5.28;3.78;;;;;;;;;;6095901;23;20025;-89
2022/04/20 08:04:17;;;;;;;7.65;4.35;;;;;;;;;;6096567;23;20061;-88
2022/04/20 08:06:43;;;;;;;8.38;4.03;;;;;;;;;;6095740;23;20025;-87
2022/04/20 08:09:09;;;;;;;7.60;4.20;;;;;;;;;;6095033;23;20346;-89
2022/04/20 08:11:35;;;;;;;6.97;4.03;;;;;;;;;;6095037;23;20014;-88
2022/04/20 08:14:10;;;;;;;5.50;3.30;;;;;;;;;;6095993;23;20475;-89
2022/04/20 08:16:36;;;;;;;6.63;3.38;;;;;;;;;;6097334;23;20049;-90
2022/04/20 08:19:03;;;;;;;8.32;3.35;;;;;;;;;;6091762;23;20021;-88
2022/04/20 08:21:29;;;;;;;7.10;3.25;;;;;;;;;;6121521;23;20020;-89
2022/04/20 08:23:55;;;;;;;5.05;3.08;;;;;;;;;;6095418;23;20401;-89
2022/04/20 08:26:46;;;;;;;7.15;3.30;;;;;;;;;;6096530;23;20021;-89
2022/04/20 08:29:12;;;;;;;6.57;3.55;;;;;;;;;;6094027;23;20021;-88
2022/04/20 08:31:38;;;;;;;6.38;3.72;;;;;;;;;;6095724;23;20036;-86
2022/04/20 08:34:05;;;;;;;4.35;3.42;;;;;;;;;;6095774;23;20454;-86
2022/04/20 08:36:31;;;;;;;8.75;2.70;;;;;;;;;;6093203;23;20017;-89
2022/04/20 08:38:57;;;;;;;6.13;2.60;;;;;;;;;;6094511;23;20021;-89
2022/04/20 08:41:23;;;;;;;3.85;2.90;;;;;;;;;;6094393;23;20029;-88
2022/04/20 08:43:50;;;;;;;4.93;3.25;;;;;;;;;;6095246;23;20207;-88
2022/04/20 08:46:17;;;;;;;6.35;2.97;;;;;;;;;;6094786;23;20242;-89
2022/04/20 08:48:43;;;;;;;32.20;5.10;;;;;;;;;;6098014;23;20044;-88
2022/04/20 08:51:09;;;;;;;10.50;3.55;;;;;;;;;;6093768;23;20056;-89
2022/04/20 08:53:36;;;;;;;4.43;2.78;;;;;;;;;;6097805;23;20017;-89
2022/04/20 08:58:49;;;;;;;4.72;2.60;;;;;;;;;;6122747;23;20029;-88
2022/04/20 09:01:15;;;;;;;5.40;2.85;;;;;;;;;;6096761;23;20014;-89
2022/04/20 09:03:44;;;;;;;4.60;2.63;;;;;;;;;;6095630;23;20021;-87
2022/04/20 09:06:11;;;;;;;4.90;2.63;;;;;;;;;;6094951;23;20320;-91
2022/04/20 09:08:38;;;;;;;5.60;2.72;;;;;;;;;;6096810;23;20095;-88
2022/04/20 09:11:04;;;;;;;5.63;2.40;;;;;;;;;;6093297;23;20509;-89
2022/04/20 09:13:35;;;;;;;3.50;2.58;;;;;;;;;;6096406;23;20010;-89
2022/04/20 09:16:09;;;;;;;5.50;3.20;;;;;;;;;;6096368;23;20013;-88
2022/04/20 09:18:36;;;;;;;4.93;3.05;;;;;;;;;;6095557;23;20021;-88
2022/04/20 09:21:09;;;;;;;6.75;2.75;;;;;;;;;;6092813;23;20354;-89
2022/04/20 09:23:36;;;;;;;6.03;2.40;;;;;;;;;;6095891;23;20072;-89
2022/04/20 09:26:09;;;;;;;4.80;2.53;;;;;;;;;;6093338;23;20048;-85
2022/04/20 09:28:38;;;;;;;4.47;2.15;;;;;;;;;;6093656;23;20037;-87
2022/04/20 09:31:04;;;;;;;5.10;2.28;;;9.40;99.90;;;;;;6096353;23;20045;-88
2022/04/20 09:33:45;;;;;;;3.17;2.17;;;;;;;;;;6049805;23;20014;-88
2022/04/20 09:36:21;;;;;;;3.83;2.28;;;;;;;;;;6097549;23;20064;-88
2022/04/20 09:39:03;;;;;;;11.57;2.30;;;;;;;;;;6091974;23;20017;-89
2022/04/20 09:41:29;;;;;;;5.60;2.38;;;;;;;;;;6096192;23;20017;-89
2022/04/20 09:44:09;;;;;;;3.05;1.92;;;;;;;;;;6095460;23;20037;-88
2022/04/20 09:49:37;;;;;;;3.45;2.10;;;;;;;;;;6097668;23;20018;-87
2022/04/20 09:52:10;;;;;;;5.05;2.70;;;;;;;;;;6094612;23;20044;-88
2022/04/20 09:54:39;;;;;;;9.48;2.70;;;;;;;;;;6093274;23;20016;-87
2022/04/20 09:57:13;;;;;;;4.97;2.30;;;;;;;;;;6098082;23;20059;-88
2022/04/20 09:59:59;;;;;;;2.78;2.10;;;;;;;;;;6096626;23;20518;-89
2022/04/20 10:02:25;;;;;;;4.18;1.90;;;;;;;;;;6097406;23;20014;-88
2022/04/20 10:04:52;;;;;;;2.85;2.10;;;;;;;;;;6094228;23;20489;-87
2022/04/20 10:07:18;;;;;;;4.57;1.90;;;;;;;;;;6096202;23;20017;-88
2022/04/20 10:09:45;;;;;;;3.70;2.00;;;;;;;;;;6094366;23;20020;-86
2022/04/20 10:12:20;;;;;;;5.60;1.90;;;13.40;56.70;;;;;;6096033;23;20040;-88
2022/04/20 10:17:50;;;;;;;5.82;1.98;;;14.60;52.80;;;;;;6121364;23;20045;-89
2022/04/20 10:20:17;;;;;;;6.00;2.30;;;14.70;53.60;;;;;;6096621;23;20164;-89
2022/04/20 10:22:43;;;;;;;4.07;2.17;;;14.80;53.20;;;;;;6094266;23;20048;-89
2022/04/20 10:25:11;;;;;;;5.45;2.50;;;14.90;51.30;;;;;;6096280;23;20013;-90
2022/04/20 10:27:53;;;;;;;12.20;2.30;;;14.80;51.00;;;;;;6096007;23;20441;-90
2022/04/20 10:30:26;;;;;;;3.05;2.13;;;14.80;49.00;;;;;;6097963;23;20191;-88
2022/04/20 10:33:05;;;;;;;3.45;2.42;;;14.70;50.30;;;;;;6096280;23;20359;-88
2022/04/20 10:35:54;;;;;;;8.13;2.40;;;14.60;50.10;;;;;;6097822;23;20017;-88
2022/04/20 10:38:20;;;;;;;3.80;2.20;;;14.70;51.60;;;;;;6095941;23;20573;-88
2022/04/20 10:41:17;;;;;;;3.70;1.98;;;14.70;52.50;;;;;;6091725;23;20021;-88
2022/04/20 10:43:43;;;;;;;3.55;2.40;;;14.90;52.20;;;;;;6070666;23;20021;-89
2022/04/20 10:46:19;;;;;;;5.53;1.92;;;15.00;51.40;;;;;;6094621;23;20072;-88
2022/04/20 10:48:58;;;;;;;3.97;2.30;;;15.10;51.20;;;;;;6097170;23;20018;-88
2022/04/20 10:51:40;;;;;;;5.18;2.38;;;15.10;50.40;;;;;;6098693;23;20017;-88
2022/04/20 10:54:29;;;;;;;3.20;2.00;;;15.20;50.80;;;;;;6095613;23;20021;-88
2022/04/20 10:57:05;;;;;;;3.33;2.20;;;15.20;50.30;;;;;;6071612;23;20017;-89
2022/04/20 10:59:32;;;;;;;3.35;2.10;;;15.20;49.00;;;;;;6096507;23;20185;-89
2022/04/20 11:02:06;;;;;;;3.47;2.15;;;15.10;48.90;;;;;;6047654;23;20049;-90
2022/04/20 11:04:50;;;;;;;5.95;2.20;;;15.20;48.70;;;;;;6098680;23;20100;-90
2022/04/20 11:07:16;;;;;;;3.47;1.80;;;15.30;47.60;;;;;;6097142;23;20017;-89
2022/04/20 11:09:52;;;;;;;4.75;1.80;;;15.20;47.70;;;;;;6094904;23;20018;-85
2022/04/20 11:18:38;;;;;;;2.83;1.70;;;15.20;48.30;;;;;;6120836;23;20028;-87
2022/04/20 11:18:38;;;;;;;3.53;1.67;;;15.30;48.00;;;;;;6121518;23;20072;-88
2022/04/20 11:21:05;;;;;;;3.33;1.60;;;15.50;46.50;;;;;;6074543;23;20249;-89
2022/04/20 11:23:49;;;;;;;3.33;1.80;;;15.40;47.10;;;;;;6097265;23;20036;-89
2022/04/20 11:26:24;;;;;;;3.45;1.55;;;15.50;46.50;;;;;;6096301;23;20018;-86
2022/04/20 11:28:52;;;;;;;1.98;1.50;;;15.60;47.00;;;;;;6098777;23;20092;-86
2022/04/20 11:31:18;;;;;;;2.60;1.60;;;15.80;45.90;;;;;;6100307;23;20052;-89
2022/04/20 11:33:44;;;;;;;4.97;1.60;;;15.80;44.80;;;;;;6100230;23;20040;-87
2022/04/20 11:36:14;;;;;;;5.82;2.92;;;15.80;44.90;;;;;;6076850;23;20324;-87
2022/04/20 11:38:44;;;;;;;4.72;1.70;;;15.90;44.80;;;;;;6078396;23;20025;-88
2022/04/20 11:41:12;;;;;;;2.42;1.30;;;16.00;44.00;;;;;;6097047;23;20043;-90
2022/04/20 11:43:38;;;;;;;3.47;1.73;;;15.90;42.90;;;;;;6072795;23;20064;-88
2022/04/20 11:46:05;;;;;;;5.07;1.83;;;15.90;43.10;;;;;;6095016;23;20316;-90
2022/04/20 11:48:41;;;;;;;12.68;1.70;;;16.00;43.90;;;;;;6098694;23;20024;-89
2022/04/20 11:51:08;;;;;;;5.10;1.63;;;16.10;44.10;;;;;;6075166;23;20013;-88
2022/04/20 11:53:42;;;;;;;2.30;1.40;;;16.20;44.70;;;;;;6101475;23;20013;-88
2022/04/20 11:56:11;;;;;;;5.30;1.60;;;16.30;43.10;;;;;;6100167;23;20180;-86
2022/04/20 11:58:38;;;;;;;7.20;1.55;;;16.40;43.70;;;;;;6098943;23;20039;-87
2022/04/20 12:01:06;;;;;;;3.17;1.70;;;16.50;44.40;;;;;;6096081;23;20881;-87
2022/04/20 12:03:37;;;;;;;41.40;5.25;;;16.70;44.20;;;;;;6118587;23;20048;-86
2022/04/20 12:06:05;;;;;;;2.33;1.42;;;16.70;42.70;;;;;;6096797;23;20014;-87
2022/04/20 12:08:40;;;;;;;2.00;1.25;;;16.80;43.50;;;;;;6074301;23;20024;-87
2022/04/20 12:11:11;;;;;;;1.60;1.40;;;16.90;43.20;;;;;;6096602;23;20048;-87
2022/04/20 12:13:39;;;;;;;5.80;1.50;;;17.00;43.00;;;;;;6095053;23;20017;-87
2022/04/20 12:16:10;;;;;;;3.30;1.35;;;17.10;41.90;;;;;;6067322;23;20483;-88
2022/04/20 12:18:42;;;;;;;2.90;1.40;;;17.10;41.20;;;;;;6091182;23;20415;-86
2022/04/20 12:21:35;;;;;;;5.35;1.48;;;17.00;41.00;;;;;;6090553;23;20033;-88
2022/04/20 12:24:03;;;;;;;4.53;1.63;;;17.10;41.50;;;;;;6068916;23;20363;-88
2022/04/20 12:26:33;;;;;;;3.22;1.55;;;17.30;42.50;;;;;;6092281;23;20024;-90
2022/04/20 12:29:05;;;;;;;2.63;1.42;;;17.50;42.10;;;;;;6068550;23;20018;-88
2022/04/20 12:31:33;;;;;;;2.22;1.70;;;17.60;41.60;;;;;;6092996;23;20021;-90
2022/04/20 12:34:07;;;;;;;6.18;1.80;;;17.70;43.10;;;;;;6066552;23;20014;-89
2022/04/20 12:37:13;;;;;;;3.38;1.80;;;17.90;43.80;;;;;;6039528;23;20076;-88
2022/04/20 12:39:45;;;;;;;5.45;2.08;;;17.90;41.30;;;;;;6086520;23;20041;-87
2022/04/20 12:42:12;;;;;;;4.65;2.22;;;17.80;42.70;;;;;;6095009;23;20079;-88
2022/04/20 12:44:46;;;;;;;5.47;2.20;;;17.80;43.50;;;;;;6090213;23;20335;-90
2022/04/20 12:47:14;;;;;;;4.68;1.73;;;17.90;42.90;;;;;;6067608;23;20168;-87
2022/04/20 12:49:53;;;;;;;4.57;2.20;;;17.90;41.80;;;;;;6066341;23;20026;-87
2022/04/20 12:52:29;;;;;;;4.57;2.08;;;17.80;42.20;;;;;;6066710;23;20022;-87
2022/04/20 12:54:56;;;;;;;4.70;2.05;;;17.80;41.70;;;;;;6090097;23;20042;-87
2022/04/20 13:03:03;;;;;;;4.72;2.35;;;17.80;42.30;;;;;;6088962;23;20018;-86
2022/04/20 13:05:31;;;;;;;4.20;2.10;;;18.20;42.90;;;;;;6084721;23;20018;-87
2022/04/20 13:07:59;;;;;;;7.53;2.15;;;18.80;42.50;;;;;;6060622;23;20014;-87
2022/04/20 13:10:28;;;;;;;2.80;2.25;;;19.00;42.50;;;;;;6040802;23;20014;-88
2022/04/20 13:12:55;;;;;;;7.35;2.20;;;19.00;42.10;;;;;;6041276;23;20467;-87
2022/04/20 13:15:34;;;;;;;3.47;2.20;;;19.10;42.70;;;;;;6074105;23;20080;-87
2022/04/20 13:18:03;;;;;;;7.22;2.45;;;;;;;;;;6116545;23;20021;-88
2022/04/20 13:20:45;;;;;;;3.65;2.28;;;;;;;;;;6094618;23;20167;-87
2022/04/20 13:23:41;;;;;;;13.38;3.92;;;;;;;;;;6119036;23;20022;-88
2022/04/20 13:29:47;;;;;;;5.88;2.55;;;;;;;;;;6120302;23;20029;-89
2022/04/20 13:32:19;;;;;;;4.43;2.47;;;;;;;;;;6091950;23;20045;-89
2022/04/20 13:38:41;;;;;;;10.35;2.42;;;;;;;;;;6115498;23;20324;-87
2022/04/20 13:41:14;;;;;;;11.30;3.45;;;;;;;;;;6110639;23;20028;-88
2022/04/20 13:43:46;;;;;;;5.18;2.55;;;;;;;;;;6092834;23;20023;-90
2022/04/20 13:46:54;;;;;;;55.67;7.28;;;;;;;;;;6090653;23;20021;-90
2022/04/20 13:49:27;;;;;;;6.78;3.00;;;;;;;;;;6092570;23;20049;-88
2022/04/20 13:51:53;;;;;;;23.98;4.93;;;;;;;;;;6093455;23;20021;-88
2022/04/20 13:54:21;;;;;;;27.60;5.97;;;;;;;;;;6090268;23;20625;-89
2022/04/20 13:56:50;;;;;;;8.90;2.80;;;;;;;;;;6092387;23;20014;-88
2022/04/20 13:59:39;;;;;;;7.57;2.92;;;;;;;;;;6091114;23;20172;-89
2022/04/20 14:02:16;;;;;;;;;;;;;;;;;;;;;
2022/04/20 14:05:08;;;;;;;4.90;2.58;;;22.90;40.50;;;;;;6115346;23;20021;-88
2022/04/20 14:07:47;;;;;;;3.38;2.40;;;;;;;;;;6119384;23;20021;-90
2022/04/20 14:10:14;;;;;;;3.25;2.20;;;;;;;;;;6089812;23;20045;-88
2022/04/20 14:12:42;;;;;;;3.65;2.25;;;;;;;;;;6091393;23;20080;-90
2022/04/20 14:15:11;;;;;;;4.20;2.72;;;;;;;;;;6086632;23;20017;-88
2022/04/20 14:17:39;;;;;;;4.13;2.60;;;;;;;;;;6069081;23;20025;-89
2022/04/20 14:20:05;;;;;;;3.45;2.55;;;;;;;;;;6063941;23;20399;-89
2022/04/20 14:22:34;;;;;;;4.00;2.95;;;;;;;;;;6067006;23;20075;-88
2022/04/20 14:33:27;;;;;;;4.50;3.22;;;;;;;;;;6094661;23;20028;-90
2022/04/20 14:35:54;;;;;;;6.53;3.00;;;;;;;;;;6091735;23;20355;-89
2022/04/20 14:38:22;;;;;;;5.50;3.05;;;;;;;;;;6068967;23;20513;-88
2022/04/20 14:40:53;;;;;;;3.70;3.25;;;;;;;;;;6093888;23;20102;-88
2022/04/20 14:43:19;;;;;;;4.47;3.13;;;;;;;;;;6069641;23;20021;-88
2022/04/20 14:45:50;;;;;;;7.82;3.03;;;;;;;;;;6069781;23;20018;-91
2022/04/20 14:48:19;;;;;;;5.18;2.70;;;;;;;;;;6067909;23;20058;-91
2022/04/20 14:50:47;;;;;;;5.30;3.28;;;;;;;;;;6081653;23;20018;-88
2022/04/20 14:53:18;;;;;;;5.17;2.77;;;;;;;;;;6090807;23;20014;-86
2022/04/20 14:55:44;;;;;;;5.05;2.67;;;;;;;;;;6091746;23;20010;-88
2022/04/20 14:58:11;;;;;;;5.47;3.00;;;;;;;;;;6066456;23;20288;-88
2022/04/20 15:00:40;;;;;;;6.15;2.90;;;;;;;;;;6088164;23;20085;-90
2022/04/20 15:03:06;;;;;;;6.43;2.72;;;;;;;;;;6089066;23;20014;-88
2022/04/20 15:05:33;;;;;;;2.75;2.35;;;;;;;;;;6090054;23;20018;-88